createdAt,value
2022-08-29T00:02:15.665Z,100257.38
2022-08-29T00:06:17.644Z,100261.47
2022-08-29T00:10:19.890Z,100264.56
2022-08-29T00:14:23.627Z,100266.22
2022-08-29T00:18:25.727Z,100260.28
2022-08-29T00:22:27.621Z,100262.91
2022-08-29T00:26:30.190Z,100274.94
2022-08-29T00:30:33.774Z,100275.56
2022-08-29T00:34:35.650Z,100279.03
2022-08-29T00:38:37.792Z,100279.66
2022-08-29T00:42:40.085Z,100278.84
2022-08-29T00:46:50.901Z,100281.75
2022-08-29T00:51:00.756Z,100287.38
2022-08-29T00:55:05.289Z,100286.28
2022-08-29T00:59:15.779Z,100287.34
2022-08-29T01:03:17.541Z,100303.69
2022-08-29T01:07:20.332Z,100294.16
2022-08-29T01:11:40.528Z,100289.88
2022-08-29T01:15:44.043Z,100289.88
2022-08-29T01:20:00.479Z,100286.41
2022-08-29T01:24:24.559Z,100298.91
2022-08-29T01:28:30.662Z,100287.25
2022-08-29T01:32:32.784Z,100307.66
2022-08-29T01:36:47.325Z,100317.28
2022-08-29T01:40:49.217Z,100307.06
2022-08-29T01:44:56.429Z,100300.16
2022-08-29T01:49:00.895Z,100292.22
2022-08-29T01:53:02.688Z,100300.56
2022-08-29T01:57:06.775Z,100319.03
2022-08-29T02:01:18.286Z,100325.72
2022-08-29T02:05:30.350Z,100321.25
2022-08-29T02:09:38.222Z,100312.16
2022-08-29T02:14:00.227Z,100324.41
2022-08-29T02:18:08.277Z,100312.88
2022-08-29T02:22:10.274Z,100304.34
2022-08-29T02:26:12.405Z,100317.22
2022-08-29T02:30:15.157Z,100316.22
2022-08-29T02:34:17.094Z,100312.13
2022-08-29T02:38:18.962Z,100313.81
2022-08-29T02:42:20.874Z,100318.28
2022-08-29T02:46:22.721Z,100318.59
2022-08-29T02:50:27.070Z,100310.22
2022-08-29T02:54:28.971Z,100318.00
2022-08-29T02:58:31.751Z,100331.19
2022-08-29T03:02:33.683Z,100321.03
2022-08-29T03:06:35.601Z,100326.59
2022-08-29T03:10:37.551Z,100330.25
2022-08-29T03:14:39.397Z,100323.00
2022-08-29T03:18:41.725Z,100324.84
2022-08-29T03:22:44.062Z,100314.66
2022-08-29T03:26:56.692Z,100321.72
2022-08-29T03:30:58.992Z,100324.72
2022-08-29T03:35:00.850Z,100320.25
2022-08-29T03:39:02.869Z,100323.22
2022-08-29T03:43:04.783Z,100349.25
2022-08-29T03:47:06.853Z,100330.63
2022-08-29T03:51:09.273Z,100329.19
2022-08-29T03:55:12.280Z,100327.38
2022-08-29T03:59:14.120Z,100352.91
2022-08-29T04:03:16.590Z,100364.44
2022-08-29T04:07:18.485Z,100354.06
2022-08-29T04:11:20.863Z,100364.25
2022-08-29T04:15:24.135Z,100344.84
2022-08-29T04:19:25.923Z,100350.13
2022-08-29T04:23:27.877Z,100350.41
2022-08-29T04:27:29.818Z,100356.34
2022-08-29T04:31:31.785Z,100348.94
2022-08-29T04:35:35.504Z,100362.94
2022-08-29T04:39:43.237Z,100361.94
2022-08-29T04:43:48.512Z,100353.34
2022-08-29T04:47:50.515Z,100354.47
2022-08-29T04:51:53.767Z,100366.19
2022-08-29T04:56:07.253Z,100372.75
2022-08-29T05:00:14.081Z,100377.22
2022-08-29T05:04:15.891Z,100374.22
2022-08-29T05:08:18.153Z,100368.50
2022-08-29T05:12:19.946Z,100362.19
2022-08-29T05:16:24.844Z,100360.03
2022-08-29T05:20:26.652Z,100364.66
2022-08-29T05:24:28.505Z,100356.41
2022-08-29T05:28:31.573Z,100358.59
2022-08-29T05:32:33.484Z,100354.69
2022-08-29T05:36:35.720Z,100351.88
2022-08-29T05:40:38.186Z,100339.03
2022-08-29T05:44:40.278Z,100350.78
2022-08-29T05:48:42.356Z,100343.44
2022-08-29T05:52:44.649Z,100346.81
2022-08-29T05:56:46.542Z,100341.91
2022-08-29T06:00:48.515Z,100346.00
2022-08-29T06:04:51.275Z,100349.91
2022-08-29T06:08:54.309Z,100353.00
2022-08-29T06:12:56.239Z,100362.09
2022-08-29T06:16:58.125Z,100368.94
2022-08-29T06:20:59.996Z,100362.59
2022-08-29T06:25:08.720Z,100355.25
2022-08-29T06:29:24.183Z,100367.53
2022-08-29T06:33:25.984Z,100365.16
2022-08-29T06:37:27.842Z,100365.41
2022-08-29T06:41:30.132Z,100362.25
2022-08-29T06:45:31.969Z,100372.28
2022-08-29T06:49:33.881Z,100382.75
2022-08-29T06:53:37.471Z,100372.94
2022-08-29T06:57:45.552Z,100387.03
2022-08-29T07:01:49.247Z,100395.94
2022-08-29T07:05:53.532Z,100388.03
2022-08-29T07:09:55.477Z,100395.06
2022-08-29T07:14:02.259Z,100388.50
2022-08-29T07:18:04.438Z,100392.22
2022-08-29T07:22:08.371Z,100379.97
2022-08-29T07:26:19.124Z,100391.75
2022-08-29T07:30:21.280Z,100387.31
2022-08-29T07:34:23.152Z,100383.69
2022-08-29T07:38:25.729Z,100381.50
2022-08-29T07:42:28.615Z,100390.09
2022-08-29T07:46:31.714Z,100397.91
2022-08-29T07:50:33.623Z,100391.84
2022-08-29T07:54:35.483Z,100399.44
2022-08-29T07:58:40.341Z,100385.47
2022-08-29T08:02:44.633Z,100397.22
2022-08-29T08:06:46.515Z,100392.69
2022-08-29T08:10:52.023Z,100384.06
2022-08-29T08:14:54.274Z,100382.91
2022-08-29T08:18:56.281Z,100393.94
2022-08-29T08:22:58.663Z,100403.84
2022-08-29T08:27:00.429Z,100396.25
2022-08-29T08:31:06.356Z,100405.09
2022-08-29T08:35:09.433Z,100409.41
2022-08-29T08:39:12.717Z,100414.69
2022-08-29T08:43:20.758Z,100415.88
2022-08-29T08:47:58.607Z,100410.00
2022-08-29T08:52:03.665Z,100407.97
2022-08-29T08:56:42.659Z,100417.09
2022-08-29T09:00:55.325Z,100428.25
2022-08-29T09:05:01.270Z,100419.31
2022-08-29T09:09:45.665Z,100422.06
2022-08-29T09:13:58.311Z,100426.28
2022-08-29T09:18:18.050Z,100425.91
2022-08-29T09:22:32.844Z,100437.53
2022-08-29T09:26:38.631Z,100431.81
2022-08-29T09:30:42.408Z,100416.38
2022-08-29T09:35:07.823Z,100423.56
2022-08-29T09:39:17.851Z,100423.72
2022-08-29T09:43:25.218Z,100427.38
2022-08-29T09:47:29.234Z,100425.31
2022-08-29T09:51:36.281Z,100424.88
2022-08-29T09:55:45.101Z,100419.66
2022-08-29T09:59:50.463Z,100406.41
2022-08-29T10:04:02.796Z,100416.06
2022-08-29T10:12:12.740Z,100403.81
2022-08-29T10:16:57.464Z,100407.78
2022-08-29T10:21:16.773Z,100409.28
2022-08-29T10:25:37.931Z,100404.31
2022-08-29T10:29:42.165Z,100405.13
2022-08-29T10:34:32.690Z,100397.22
2022-08-29T10:38:58.246Z,100412.88
2022-08-29T10:43:23.912Z,100431.97
2022-08-29T10:47:53.099Z,100426.34
2022-08-29T10:52:33.514Z,100421.34
2022-08-29T10:56:44.223Z,100407.59
2022-08-29T11:01:00.221Z,100414.03
2022-08-29T11:05:09.946Z,100410.81
2022-08-29T11:09:25.105Z,100417.56
2022-08-29T11:13:51.611Z,100410.03
2022-08-29T11:18:24.263Z,100407.09
2022-08-29T11:22:31.654Z,100389.09
2022-08-29T11:26:50.534Z,100396.94
2022-08-29T11:31:01.505Z,100393.94
2022-08-29T11:35:06.369Z,100391.09
2022-08-29T11:39:56.863Z,100387.53
2022-08-29T11:44:22.138Z,100384.44
2022-08-29T11:48:38.817Z,100390.22
2022-08-29T11:53:16.833Z,100384.56
2022-08-29T11:57:18.865Z,100389.16
2022-08-29T12:01:35.873Z,100384.78
2022-08-29T12:05:56.105Z,100393.53
2022-08-29T12:09:57.824Z,100380.97
2022-08-29T12:14:00.227Z,100389.78
2022-08-29T12:18:14.959Z,100390.91
2022-08-29T12:23:08.688Z,100385.06
2022-08-29T12:31:44.314Z,100378.16
2022-08-29T12:36:18.921Z,100389.91
2022-08-29T12:40:45.298Z,100373.63
2022-08-29T12:45:00.470Z,100356.63
2022-08-29T12:49:17.478Z,100346.88
2022-08-29T12:53:24.917Z,100353.69
2022-08-29T12:57:33.485Z,100331.94
2022-08-29T13:01:39.082Z,100343.97
2022-08-29T13:05:41.170Z,100357.69
2022-08-29T13:09:57.723Z,100336.41
2022-08-29T13:14:10.455Z,100348.69
2022-08-29T13:18:16.530Z,100340.97
2022-08-29T13:22:18.496Z,100339.19
2022-08-29T13:26:22.371Z,100343.50
2022-08-29T13:30:24.811Z,100336.59
2022-08-29T13:34:26.660Z,100331.47
2022-08-29T13:38:30.048Z,100331.63
2022-08-29T13:42:32.239Z,100321.06
2022-08-29T13:46:34.134Z,100330.28
2022-08-29T13:50:36.137Z,100323.59
2022-08-29T13:54:39.348Z,100325.38
2022-08-29T13:58:41.164Z,100321.03
2022-08-29T14:02:45.452Z,100326.38
2022-08-29T14:06:47.861Z,100319.72
2022-08-29T14:10:50.803Z,100326.03
2022-08-29T14:14:52.736Z,100321.84
2022-08-29T14:18:54.834Z,100308.97
2022-08-29T14:22:56.849Z,100313.16
2022-08-29T14:27:02.346Z,100299.59
2022-08-29T14:31:04.749Z,100293.63
2022-08-29T14:35:07.101Z,100304.09
2022-08-29T14:39:09.085Z,100304.34
2022-08-29T14:43:11.160Z,100304.44
2022-08-29T14:47:13.247Z,100294.34
2022-08-29T14:51:15.017Z,100291.53
2022-08-29T14:55:17.910Z,100299.00
2022-08-29T14:59:20.866Z,100289.44
2022-08-29T15:03:22.795Z,100299.03
2022-08-29T15:07:24.672Z,100282.75
2022-08-29T15:11:26.547Z,100280.00
2022-08-29T15:15:29.705Z,100262.78
2022-08-29T15:20:15.878Z,100273.97
2022-08-29T15:23:55.510Z,100269.16
2022-08-29T15:27:57.371Z,100275.75
2022-08-29T15:32:00.614Z,100263.44
2022-08-29T15:36:03.439Z,100267.75
2022-08-29T15:40:09.744Z,100274.44
2022-08-29T15:44:14.902Z,100273.13
2022-08-29T15:48:18.069Z,100271.91
2022-08-29T15:52:21.744Z,100277.84
2022-08-29T15:56:23.829Z,100265.38
2022-08-29T16:00:30.693Z,100257.91
2022-08-29T16:04:32.972Z,100254.38
2022-08-29T16:08:35.912Z,100267.19
2022-08-29T16:12:38.408Z,100256.25
2022-08-29T16:16:40.851Z,100260.09
2022-08-29T16:20:43.680Z,100244.00
2022-08-29T16:24:45.886Z,100257.41
2022-08-29T16:28:48.815Z,100241.13
2022-08-29T16:32:54.214Z,100241.25
2022-08-29T16:36:57.716Z,100227.56
2022-08-29T16:41:18.807Z,100247.50
2022-08-29T16:45:23.173Z,100237.00
2022-08-29T16:49:26.890Z,100239.84
2022-08-29T16:53:34.354Z,100249.81
2022-08-29T16:57:38.573Z,100256.47
2022-08-29T17:01:47.878Z,100260.28
2022-08-29T17:05:50.287Z,100267.25
2022-08-29T17:09:52.038Z,100268.38
2022-08-29T17:13:54.579Z,100267.00
2022-08-29T17:17:58.944Z,100266.06
2022-08-29T17:22:01.147Z,100258.31
2022-08-29T17:26:06.190Z,100264.13
2022-08-29T17:30:10.713Z,100271.94
2022-08-29T17:34:12.937Z,100271.66
2022-08-29T17:38:15.051Z,100276.16
2022-08-29T17:42:17.284Z,100278.00
2022-08-29T17:46:24.912Z,100287.03
2022-08-29T17:50:26.941Z,100278.59
2022-08-29T17:54:28.922Z,100274.72
2022-08-29T17:58:30.883Z,100276.16
2022-08-29T18:02:35.002Z,100287.59
2022-08-29T18:06:41.600Z,100279.06
2022-08-29T18:10:46.318Z,100286.00
2022-08-29T18:14:52.584Z,100292.34
2022-08-29T18:18:54.599Z,100285.81
2022-08-29T18:22:59.335Z,100290.31
2022-08-29T18:27:03.431Z,100302.38
2022-08-29T18:31:05.669Z,100311.78
2022-08-29T18:35:10.812Z,100321.41
2022-08-29T18:39:13.845Z,100321.19
2022-08-29T18:43:15.706Z,100319.72
2022-08-29T18:47:17.625Z,100324.38
2022-08-29T18:51:19.794Z,100321.13
2022-08-29T18:55:23.553Z,100332.53
2022-08-29T18:59:29.656Z,100343.56
2022-08-29T19:03:32.453Z,100342.53
2022-08-29T19:07:34.379Z,100340.63
2022-08-29T19:11:36.670Z,100355.72
2022-08-29T19:15:41.428Z,100357.34
2022-08-29T19:20:02.208Z,100347.91
2022-08-29T19:24:04.316Z,100346.47
2022-08-29T19:28:06.726Z,100365.78
2022-08-29T19:32:08.630Z,100350.81
2022-08-29T19:36:10.820Z,100360.41
2022-08-29T19:40:14.524Z,100347.25
2022-08-29T19:44:16.838Z,100361.16
2022-08-29T19:48:18.986Z,100354.56
2022-08-29T19:52:20.936Z,100364.56
2022-08-29T19:56:23.892Z,100371.63
2022-08-29T20:00:28.447Z,100377.94
2022-08-29T20:04:34.394Z,100371.75
2022-08-29T20:08:37.711Z,100367.59
2022-08-29T20:12:39.732Z,100368.78
2022-08-29T20:16:41.908Z,100375.66
2022-08-29T20:20:45.007Z,100382.34
2022-08-29T20:24:46.828Z,100384.88
2022-08-29T20:28:55.502Z,100372.59
2022-08-29T20:32:57.664Z,100389.09
2022-08-29T20:37:12.717Z,100386.28
2022-08-29T20:41:14.479Z,100383.03
2022-08-29T20:45:23.301Z,100379.97
2022-08-29T20:49:25.881Z,100382.09
2022-08-29T20:53:32.396Z,100388.00
2022-08-29T20:57:34.796Z,100396.97
2022-08-29T21:01:36.765Z,100411.28
2022-08-29T21:05:38.910Z,100398.97
2022-08-29T21:09:43.389Z,100403.72
2022-08-29T21:13:45.131Z,100402.91
2022-08-29T21:17:49.387Z,100421.59
2022-08-29T21:21:51.412Z,100417.03
2022-08-29T21:25:55.167Z,100418.84
2022-08-29T21:29:57.291Z,100422.47
2022-08-29T21:40:09.774Z,100449.91
2022-08-29T21:50:28.581Z,100444.44
2022-08-29T21:54:30.665Z,100432.50
2022-08-29T21:58:32.777Z,100429.25
2022-08-29T22:02:34.702Z,100442.22
2022-08-29T22:06:40.962Z,100437.59
2022-08-29T22:10:43.180Z,100447.06
2022-08-29T22:15:04.121Z,100441.78
2022-08-29T22:19:18.439Z,100447.78
2022-08-29T22:23:20.491Z,100457.06
2022-08-29T22:27:22.590Z,100445.81
2022-08-29T22:31:24.439Z,100436.41
2022-08-29T22:35:26.701Z,100452.88
2022-08-29T22:39:28.755Z,100449.63
2022-08-29T22:43:31.493Z,100438.63
2022-08-29T22:47:33.252Z,100439.28
2022-08-29T22:51:35.159Z,100459.19
2022-08-29T22:55:37.097Z,100463.13
2022-08-29T22:59:38.992Z,100464.81
2022-08-29T23:03:40.815Z,100433.19
2022-08-29T23:07:42.698Z,100438.63
2022-08-29T23:11:44.732Z,100467.16
2022-08-29T23:15:46.638Z,100452.94
2022-08-29T23:19:50.023Z,100472.91
2022-08-29T23:23:51.876Z,100463.50
2022-08-29T23:27:53.651Z,100467.81
2022-08-29T23:31:55.505Z,100452.06
2022-08-29T23:35:57.423Z,100454.91
2022-08-29T23:40:00.421Z,100457.72
2022-08-29T23:44:02.375Z,100447.38
2022-08-29T23:48:04.533Z,100455.78
2022-08-29T23:52:06.397Z,100452.16
2022-08-29T23:56:14.065Z,100458.56
